createdAt,value
2018-01-26T00:00:02.904Z,101200.72
2018-01-26T00:02:30.533Z,101201.67
2018-01-26T00:04:58.112Z,101204.58
2018-01-26T00:07:25.878Z,101200.75
2018-01-26T00:09:53.552Z,101201.41
2018-01-26T00:12:21.112Z,101205.77
2018-01-26T00:14:49.061Z,101201.63
2018-01-26T00:17:16.742Z,101201.75
2018-01-26T00:19:47.729Z,101203.39
2018-01-26T00:22:18.937Z,101205.91
2018-01-26T00:24:46.723Z,101198.83
2018-01-26T00:27:14.299Z,101198.67
2018-01-26T00:29:41.906Z,101189.95
2018-01-26T00:32:09.654Z,101190.98
2018-01-26T00:34:37.230Z,101191.94
2018-01-26T00:37:04.987Z,101189.33
2018-01-26T00:39:32.555Z,101192.36
2018-01-26T00:42:00.512Z,101185.15
2018-01-26T00:44:28.103Z,101175.55
2018-01-26T00:46:55.678Z,101190.41
2018-01-26T00:49:23.582Z,101186.30
2018-01-26T00:51:51.187Z,101186.77
2018-01-26T00:54:18.759Z,101183.13
2018-01-26T00:56:46.341Z,101185.82
2018-01-26T00:59:13.958Z,101182.02
2018-01-26T01:01:41.618Z,101179.42
2018-01-26T01:04:09.461Z,101173.59
2018-01-26T01:06:37.066Z,101167.84
2018-01-26T01:09:04.717Z,101172.24
2018-01-26T01:11:32.285Z,101164.86
2018-01-26T01:13:59.886Z,101160.15
2018-01-26T01:16:27.597Z,101163.45
2018-01-26T01:18:55.281Z,101160.39
2018-01-26T01:21:23.109Z,101160.95
2018-01-26T01:23:50.777Z,101166.81
2018-01-26T01:26:18.362Z,101170.16
2018-01-26T01:28:45.966Z,101170.34
2018-01-26T01:31:13.531Z,101164.89
2018-01-26T01:33:41.129Z,101169.81
2018-01-26T01:36:08.908Z,101162.34
2018-01-26T01:38:36.505Z,101161.22
2018-01-26T01:41:04.204Z,101155.43
2018-01-26T01:43:31.808Z,101154.38
2018-01-26T01:45:59.385Z,101150.97
2018-01-26T01:48:26.966Z,101154.34
2018-01-26T01:50:54.572Z,101140.61
2018-01-26T01:53:22.313Z,101144.09
2018-01-26T01:55:49.877Z,101143.77
2018-01-26T01:58:17.643Z,101150.83
2018-01-26T02:00:45.280Z,101148.66
2018-01-26T02:03:13.177Z,101145.80
2018-01-26T02:05:41.237Z,101141.98
2018-01-26T02:08:08.807Z,101146.23
2018-01-26T02:10:36.389Z,101143.91
2018-01-26T02:13:04.004Z,101138.78
2018-01-26T02:15:31.596Z,101142.83
2018-01-26T02:17:59.403Z,101138.92
2018-01-26T02:20:27.220Z,101137.63
2018-01-26T02:22:54.881Z,101138.47
2018-01-26T02:25:22.460Z,101127.75
2018-01-26T02:27:50.115Z,101130.98
2018-01-26T02:30:17.703Z,101133.61
2018-01-26T02:32:45.278Z,101133.58
2018-01-26T02:35:12.899Z,101129.36
2018-01-26T02:37:40.481Z,101131.93
2018-01-26T02:40:08.066Z,101135.13
2018-01-26T02:42:35.668Z,101127.85
2018-01-26T02:45:03.237Z,101124.44
2018-01-26T02:47:30.818Z,101126.22
2018-01-26T02:49:58.421Z,101126.61
2018-01-26T02:52:25.988Z,101124.40
2018-01-26T02:54:53.568Z,101127.06
2018-01-26T02:57:21.204Z,101128.02
2018-01-26T02:59:48.782Z,101120.36
2018-01-26T03:02:16.441Z,101124.53
2018-01-26T03:04:44.043Z,101097.52
2018-01-26T03:07:12.012Z,101132.21
2018-01-26T03:09:39.591Z,101135.63
2018-01-26T03:12:07.195Z,101134.83
2018-01-26T03:14:34.765Z,101133.14
2018-01-26T03:17:02.342Z,101135.33
2018-01-26T03:19:30.170Z,101133.61
2018-01-26T03:21:57.761Z,101134.52
2018-01-26T03:24:25.391Z,101137.38
2018-01-26T03:26:53.238Z,101141.53
2018-01-26T03:29:20.791Z,101138.42
2018-01-26T03:31:48.358Z,101142.09
2018-01-26T03:34:15.955Z,101139.78
2018-01-26T03:36:43.532Z,101141.38
2018-01-26T03:39:11.144Z,101138.55
2018-01-26T03:41:38.835Z,101130.77
2018-01-26T03:44:06.512Z,101135.70
2018-01-26T03:46:34.081Z,101135.18
2018-01-26T03:49:01.832Z,101140.80
2018-01-26T03:51:29.421Z,101130.41
2018-01-26T03:53:56.996Z,101141.64
2018-01-26T03:56:24.809Z,101140.02
2018-01-26T03:58:52.378Z,101145.60
2018-01-26T04:01:19.948Z,101137.97
2018-01-26T04:03:47.552Z,101142.92
2018-01-26T04:06:15.427Z,101139.88
2018-01-26T04:08:43.032Z,101141.80
2018-01-26T04:11:10.636Z,101149.52
2018-01-26T04:13:38.204Z,101146.89
2018-01-26T04:16:05.774Z,101159.45
2018-01-26T04:18:33.386Z,101159.62
2018-01-26T04:21:00.966Z,101158.03
2018-01-26T04:23:28.531Z,101154.72
2018-01-26T04:25:56.344Z,101164.75
2018-01-26T04:28:24.003Z,101163.33
2018-01-26T04:30:51.670Z,101158.87
2018-01-26T04:33:19.291Z,101167.73
2018-01-26T04:35:46.925Z,101169.03
2018-01-26T04:38:14.668Z,101163.81
2018-01-26T04:40:42.265Z,101170.81
2018-01-26T04:43:09.828Z,101165.63
2018-01-26T04:45:37.394Z,101176.11
2018-01-26T04:48:05.012Z,101173.22
2018-01-26T04:50:32.596Z,101175.33
2018-01-26T04:53:00.212Z,101174.45
2018-01-26T04:55:27.829Z,101171.95
2018-01-26T04:57:55.536Z,101174.19
2018-01-26T05:00:23.098Z,101177.97
2018-01-26T05:02:50.878Z,101178.45
2018-01-26T05:05:18.751Z,101185.39
2018-01-26T05:07:46.611Z,101189.45
2018-01-26T05:10:14.250Z,101186.23
2018-01-26T05:12:41.915Z,101193.54
2018-01-26T05:15:09.505Z,101198.95
2018-01-26T05:17:37.494Z,101200.78
2018-01-26T05:20:05.084Z,101200.36
2018-01-26T05:22:32.688Z,101196.70
2018-01-26T05:25:00.295Z,101202.64
2018-01-26T05:27:27.879Z,101202.61
2018-01-26T05:29:55.466Z,101203.98
2018-01-26T05:32:23.083Z,101204.50
2018-01-26T05:34:50.672Z,101202.27
2018-01-26T05:37:18.535Z,101198.73
2018-01-26T05:39:46.142Z,101201.30
2018-01-26T05:42:13.709Z,101198.54
2018-01-26T05:44:41.286Z,101206.36
2018-01-26T05:47:08.903Z,101211.79
2018-01-26T05:49:36.476Z,101211.59
2018-01-26T05:52:04.035Z,101216.40
2018-01-26T05:54:31.646Z,101213.05
2018-01-26T05:56:59.233Z,101212.31
2018-01-26T05:59:26.806Z,101204.36
2018-01-26T06:01:54.407Z,101206.78
2018-01-26T06:04:21.982Z,101204.94
2018-01-26T06:06:49.549Z,101202.66
2018-01-26T06:09:17.151Z,101206.89
2018-01-26T06:11:44.717Z,101202.02
2018-01-26T06:14:12.454Z,101203.81
2018-01-26T06:16:40.056Z,101207.45
2018-01-26T06:19:07.798Z,101203.63
2018-01-26T06:21:35.372Z,101197.06
2018-01-26T06:24:03.303Z,101193.37
2018-01-26T06:26:30.883Z,101189.73
2018-01-26T06:28:58.484Z,101185.67
2018-01-26T06:31:26.144Z,101181.52
2018-01-26T06:33:53.745Z,101177.04
2018-01-26T06:36:21.318Z,101191.76
2018-01-26T06:38:48.925Z,101183.77
2018-01-26T06:41:16.499Z,101179.33
2018-01-26T06:43:44.190Z,101178.94
2018-01-26T06:46:11.800Z,101176.63
2018-01-26T06:48:39.384Z,101170.87
2018-01-26T06:51:06.971Z,101162.47
2018-01-26T06:53:34.598Z,101166.36
2018-01-26T06:56:02.165Z,101161.20
2018-01-26T06:58:29.737Z,101165.77
2018-01-26T07:00:57.418Z,101157.38
2018-01-26T07:03:24.996Z,101157.87
2018-01-26T07:05:52.558Z,101163.14
2018-01-26T07:08:20.142Z,101154.60
2018-01-26T07:10:47.881Z,101159.13
2018-01-26T07:13:15.527Z,101158.27
2018-01-26T07:15:43.184Z,101153.97
2018-01-26T07:18:10.855Z,101154.53
2018-01-26T07:20:38.425Z,101149.44
2018-01-26T07:23:06.044Z,101149.13
2018-01-26T07:25:33.857Z,101150.48
2018-01-26T07:28:01.431Z,101153.23
2018-01-26T07:30:29.182Z,101145.68
2018-01-26T07:32:56.819Z,101141.07
2018-01-26T07:35:24.505Z,101143.44
2018-01-26T07:37:52.360Z,101147.49
2018-01-26T07:40:19.932Z,101133.03
2018-01-26T07:42:47.492Z,101132.22
2018-01-26T07:45:15.079Z,101133.41
2018-01-26T07:47:42.812Z,101132.83
2018-01-26T07:50:10.419Z,101133.25
2018-01-26T07:52:38.024Z,101133.16
2018-01-26T07:55:05.592Z,101127.14
2018-01-26T07:57:33.162Z,101127.61
2018-01-26T08:00:00.771Z,101132.85
2018-01-26T08:02:28.349Z,101129.44
2018-01-26T08:04:56.018Z,101123.82
2018-01-26T08:07:23.883Z,101127.68
2018-01-26T08:09:51.509Z,101121.46
2018-01-26T08:12:19.089Z,101125.64
2018-01-26T08:14:46.683Z,101129.52
2018-01-26T08:17:14.250Z,101126.57
2018-01-26T08:19:41.838Z,101122.57
2018-01-26T08:22:09.443Z,101127.32
2018-01-26T08:24:37.034Z,101125.42
2018-01-26T08:27:04.614Z,101127.22
2018-01-26T08:29:32.219Z,101128.57
2018-01-26T08:31:59.832Z,101128.63
2018-01-26T08:34:27.392Z,101131.52
2018-01-26T08:36:55.039Z,101128.18
2018-01-26T08:39:22.700Z,101132.70
2018-01-26T08:41:50.267Z,101130.53
2018-01-26T08:44:18.030Z,101132.05
2018-01-26T08:46:45.590Z,101130.48
2018-01-26T08:49:13.329Z,101124.71
2018-01-26T08:51:40.962Z,101123.93
2018-01-26T08:54:08.552Z,101125.48
2018-01-26T08:56:36.325Z,101132.09
2018-01-26T08:59:03.914Z,101118.27
2018-01-26T09:01:31.645Z,101122.77
2018-01-26T09:03:59.210Z,101115.27
2018-01-26T09:06:26.818Z,101117.89
2018-01-26T09:08:54.409Z,101109.74
2018-01-26T09:11:21.968Z,101106.75
2018-01-26T09:13:49.751Z,101103.69
2018-01-26T09:16:17.413Z,101098.32
2018-01-26T09:18:45.000Z,101103.30
2018-01-26T09:21:12.624Z,101096.20
2018-01-26T09:23:40.236Z,101092.20
2018-01-26T09:26:07.825Z,101084.56
2018-01-26T09:28:35.440Z,101084.45
2018-01-26T09:31:03.022Z,101074.22
2018-01-26T09:33:30.629Z,101079.94
2018-01-26T09:35:58.248Z,101077.56
2018-01-26T09:38:25.837Z,101073.69
2018-01-26T09:40:53.424Z,101068.89
2018-01-26T09:43:21.078Z,101064.68
2018-01-26T09:45:48.660Z,101061.94
2018-01-26T09:48:16.235Z,101060.37
2018-01-26T09:50:43.869Z,101056.76
2018-01-26T09:53:11.525Z,101052.62
2018-01-26T09:55:39.187Z,101053.49
2018-01-26T09:58:06.797Z,101045.20
2018-01-26T10:00:34.398Z,101043.42
2018-01-26T10:03:02.013Z,101037.96
2018-01-26T10:05:29.736Z,101032.97
2018-01-26T10:07:57.332Z,101029.27
2018-01-26T10:10:24.917Z,101007.96
2018-01-26T10:12:52.529Z,101007.02
2018-01-26T10:15:20.092Z,101003.31
2018-01-26T10:17:47.673Z,101006.71
2018-01-26T10:20:15.284Z,100994.80
2018-01-26T10:22:43.078Z,100999.27
2018-01-26T10:25:10.722Z,100993.98
2018-01-26T10:27:38.508Z,100995.37
2018-01-26T10:30:06.085Z,100994.08
2018-01-26T10:32:33.722Z,100986.20
2018-01-26T10:35:01.342Z,100988.81
2018-01-26T10:37:28.923Z,100981.59
2018-01-26T10:39:56.500Z,100983.91
2018-01-26T10:42:24.124Z,100977.60
2018-01-26T10:44:51.703Z,100977.11
2018-01-26T10:47:19.316Z,100977.14
2018-01-26T10:49:46.954Z,100976.18
2018-01-26T10:52:14.534Z,100967.75
2018-01-26T10:54:42.875Z,100972.48
2018-01-26T10:57:10.529Z,100969.86
2018-01-26T10:59:38.116Z,100960.67
2018-01-26T11:02:05.710Z,100969.63
2018-01-26T11:04:33.322Z,100970.88
2018-01-26T11:07:00.894Z,100965.17
2018-01-26T11:09:28.464Z,100960.22
2018-01-26T11:11:56.071Z,100962.98
2018-01-26T11:14:23.785Z,100954.06
2018-01-26T11:16:51.409Z,100963.53
2018-01-26T11:19:19.083Z,100954.48
2018-01-26T11:21:47.231Z,100957.15
2018-01-26T11:24:14.839Z,100957.72
2018-01-26T11:26:42.701Z,100964.08
2018-01-26T11:29:10.275Z,100964.48
2018-01-26T11:31:37.834Z,100962.43
2018-01-26T11:34:05.426Z,100961.43
2018-01-26T11:36:33.005Z,100963.67
2018-01-26T11:39:00.572Z,100954.59
2018-01-26T11:41:28.169Z,100963.70
2018-01-26T11:43:55.742Z,100958.08
2018-01-26T11:46:23.432Z,100959.05
2018-01-26T11:48:51.129Z,100956.66
2018-01-26T11:51:18.693Z,100966.35
2018-01-26T11:53:46.265Z,100963.25
2018-01-26T11:56:13.852Z,100963.76
2018-01-26T11:58:41.405Z,100966.80
2018-01-26T12:01:09.000Z,100966.28
2018-01-26T12:03:36.579Z,100976.41
2018-01-26T12:06:04.134Z,100963.58
2018-01-26T12:08:31.773Z,100967.01
2018-01-26T12:10:59.367Z,100962.30
2018-01-26T12:13:26.944Z,100964.73
2018-01-26T12:15:54.514Z,100962.48
2018-01-26T12:18:22.115Z,100969.30
2018-01-26T12:20:49.683Z,100963.91
2018-01-26T12:23:17.233Z,100962.56
2018-01-26T12:25:44.876Z,100965.50
2018-01-26T12:28:12.484Z,100965.09
2018-01-26T12:30:40.088Z,100960.25
2018-01-26T12:33:07.730Z,100967.42
2018-01-26T12:35:35.302Z,100967.49
2018-01-26T12:38:02.871Z,100975.05
2018-01-26T12:40:30.459Z,100968.50
2018-01-26T12:42:58.083Z,100968.98
2018-01-26T12:45:25.660Z,100969.99
2018-01-26T12:47:53.274Z,100966.98
2018-01-26T12:50:20.822Z,100970.23
2018-01-26T12:52:48.369Z,100976.37
2018-01-26T12:55:15.970Z,100974.94
2018-01-26T12:57:43.533Z,100977.62
2018-01-26T13:00:11.189Z,100975.28
2018-01-26T13:02:38.873Z,100976.23
2018-01-26T13:05:06.463Z,100977.09
2018-01-26T13:07:34.025Z,100977.45
2018-01-26T13:10:01.651Z,100975.34
2018-01-26T13:12:29.206Z,100979.03
2018-01-26T13:14:56.835Z,100972.75
2018-01-26T13:17:24.447Z,100978.23
2018-01-26T13:19:52.002Z,100983.40
2018-01-26T13:22:19.575Z,100980.25
2018-01-26T13:24:47.171Z,100972.46
2018-01-26T13:27:14.731Z,100975.32
2018-01-26T13:29:42.291Z,100979.06
2018-01-26T13:32:09.903Z,100979.97
2018-01-26T13:34:37.650Z,100977.14
2018-01-26T13:37:05.218Z,100977.30
2018-01-26T13:39:32.825Z,100974.48
2018-01-26T13:42:00.381Z,100979.61
2018-01-26T13:44:27.952Z,100975.28
2018-01-26T13:46:55.766Z,100973.52
2018-01-26T13:49:23.344Z,100971.91
2018-01-26T13:51:50.931Z,100966.25
2018-01-26T13:54:18.530Z,100975.30
2018-01-26T13:56:46.113Z,100970.83
2018-01-26T13:59:13.717Z,100970.62
2018-01-26T14:01:41.336Z,100971.95
2018-01-26T14:04:09.032Z,100965.78
2018-01-26T14:06:36.656Z,100971.00
2018-01-26T14:09:04.323Z,100970.14
2018-01-26T14:11:31.958Z,100971.38
2018-01-26T14:13:59.567Z,100976.02
2018-01-26T14:16:27.158Z,100972.06
2018-01-26T14:18:54.716Z,100979.26
2018-01-26T14:21:22.295Z,100981.98
2018-01-26T14:23:49.887Z,100987.41
2018-01-26T14:26:17.486Z,100994.94
2018-01-26T14:28:45.204Z,100998.92
2018-01-26T14:31:12.946Z,100997.84
2018-01-26T14:33:40.521Z,100994.25
2018-01-26T14:36:08.085Z,101011.23
2018-01-26T14:38:35.685Z,101009.78
2018-01-26T14:41:03.251Z,101008.79
2018-01-26T14:43:30.804Z,101009.47
2018-01-26T14:45:58.416Z,101013.16
2018-01-26T14:48:26.000Z,101009.19
2018-01-26T14:50:53.543Z,101011.47
2018-01-26T14:53:21.124Z,101006.16
2018-01-26T14:55:48.684Z,101010.32
2018-01-26T14:58:16.289Z,101011.94
2018-01-26T15:00:43.888Z,101013.68
2018-01-26T15:03:11.458Z,101020.98
2018-01-26T15:05:39.037Z,101015.44
2018-01-26T15:08:06.754Z,101023.50
2018-01-26T15:10:34.323Z,101023.16
2018-01-26T15:13:01.905Z,101029.84
2018-01-26T15:15:29.499Z,101033.70
2018-01-26T15:17:57.067Z,101039.75
2018-01-26T15:20:24.639Z,101043.32
2018-01-26T15:22:52.322Z,101052.19
2018-01-26T15:25:19.895Z,101049.00
2018-01-26T15:27:47.442Z,101057.09
2018-01-26T15:30:15.037Z,101062.84
2018-01-26T15:32:42.703Z,101065.63
2018-01-26T15:35:10.250Z,101069.77
2018-01-26T15:37:37.865Z,101075.50
2018-01-26T15:40:05.409Z,101086.60
2018-01-26T15:42:32.964Z,101090.23
2018-01-26T15:45:00.559Z,101085.20
2018-01-26T15:47:28.123Z,101095.16
2018-01-26T15:49:55.671Z,101091.20
2018-01-26T15:52:23.300Z,101083.67
2018-01-26T15:54:50.867Z,101096.78
2018-01-26T15:57:18.414Z,101107.55
2018-01-26T15:59:46.150Z,101104.71
2018-01-26T16:02:13.702Z,101112.54
2018-01-26T16:04:41.277Z,101119.75
2018-01-26T16:07:08.877Z,101117.69
2018-01-26T16:09:36.483Z,101123.64
2018-01-26T16:12:04.085Z,101122.38
2018-01-26T16:14:31.675Z,101126.33
2018-01-26T16:16:59.238Z,101128.72
2018-01-26T16:19:26.804Z,101131.78
2018-01-26T16:21:54.399Z,101133.99
2018-01-26T16:24:21.954Z,101132.81
2018-01-26T16:26:49.501Z,101131.88
2018-01-26T16:29:17.252Z,101135.91
2018-01-26T16:31:44.797Z,101139.91
2018-01-26T16:34:12.348Z,101143.88
2018-01-26T16:36:39.931Z,101137.39
2018-01-26T16:39:07.505Z,101138.89
2018-01-26T16:41:35.107Z,101137.56
2018-01-26T16:44:02.727Z,101142.92
2018-01-26T16:46:30.298Z,101145.09
2018-01-26T16:48:57.886Z,101142.53
2018-01-26T16:51:25.483Z,101141.38
2018-01-26T16:53:53.055Z,101146.77
2018-01-26T16:56:20.617Z,101145.20
2018-01-26T16:58:48.219Z,101154.16
2018-01-26T17:01:15.769Z,101152.72
2018-01-26T17:03:43.323Z,101158.02
2018-01-26T17:06:11.129Z,101153.64
2018-01-26T17:08:38.852Z,101151.89
2018-01-26T17:11:06.555Z,101156.83
2018-01-26T17:13:35.150Z,101166.43
2018-01-26T17:16:02.714Z,101163.98
2018-01-26T17:18:30.304Z,101169.61
2018-01-26T17:20:57.911Z,101180.26
2018-01-26T17:23:25.502Z,101183.81
2018-01-26T17:25:53.062Z,101181.90
2018-01-26T17:28:20.699Z,101183.17
2018-01-26T17:30:48.482Z,101181.70
2018-01-26T17:33:16.063Z,101189.17
2018-01-26T17:35:43.676Z,101191.45
2018-01-26T17:38:11.248Z,101190.38
2018-01-26T17:40:38.817Z,101194.28
2018-01-26T17:43:06.407Z,101197.92
2018-01-26T17:45:33.991Z,101188.84
2018-01-26T17:48:02.561Z,101200.01
2018-01-26T17:50:30.160Z,101198.89
2018-01-26T17:52:57.878Z,101203.53
2018-01-26T17:55:25.425Z,101204.74
2018-01-26T17:57:53.053Z,101202.78
2018-01-26T18:00:20.665Z,101207.54
2018-01-26T18:02:48.239Z,101212.21
2018-01-26T18:05:17.304Z,101212.27
2018-01-26T18:07:44.882Z,101206.47
2018-01-26T18:10:12.550Z,101179.97
2018-01-26T18:12:40.363Z,101209.62
2018-01-26T18:15:07.935Z,101213.34
2018-01-26T18:17:35.512Z,101210.56
2018-01-26T18:20:03.112Z,101212.06
2018-01-26T18:22:30.713Z,101213.69
2018-01-26T18:24:58.260Z,101216.43
2018-01-26T18:27:25.855Z,101211.80
2018-01-26T18:29:53.422Z,101209.33
2018-01-26T18:32:21.007Z,101212.67
2018-01-26T18:34:48.772Z,101219.96
2018-01-26T18:37:16.342Z,101218.53
2018-01-26T18:39:43.909Z,101224.79
2018-01-26T18:42:11.689Z,101230.64
2018-01-26T18:44:39.250Z,101227.73
2018-01-26T18:47:06.881Z,101223.56
2018-01-26T18:49:34.483Z,101223.85
2018-01-26T18:52:02.055Z,101225.59
2018-01-26T18:54:29.645Z,101221.09
2018-01-26T18:56:57.321Z,101216.34
2018-01-26T18:59:24.893Z,101225.30
2018-01-26T19:01:52.450Z,101225.32
2018-01-26T19:04:20.042Z,101231.05
2018-01-26T19:06:47.628Z,101223.91
2018-01-26T19:09:15.189Z,101235.38
2018-01-26T19:11:42.796Z,101227.29
2018-01-26T19:14:10.358Z,101228.12
2018-01-26T19:16:37.928Z,101239.41
2018-01-26T19:19:05.515Z,101239.66
2018-01-26T19:21:33.099Z,101239.97
2018-01-26T19:24:00.682Z,101240.35
2018-01-26T19:26:33.799Z,101240.83
2018-01-26T19:29:01.349Z,101241.42
2018-01-26T19:31:28.911Z,101248.19
2018-01-26T19:33:56.528Z,101251.41
2018-01-26T19:36:24.092Z,101254.66
2018-01-26T19:38:51.660Z,101258.49
2018-01-26T19:41:19.291Z,101260.54
2018-01-26T19:43:46.886Z,101259.64
2018-01-26T19:46:14.443Z,101265.05
2018-01-26T19:48:41.990Z,101261.17
2018-01-26T19:51:09.661Z,101262.85
2018-01-26T19:53:37.209Z,101266.36
2018-01-26T19:56:04.771Z,101263.37
2018-01-26T19:58:32.398Z,101270.24
2018-01-26T20:00:59.979Z,101268.94
2018-01-26T20:03:32.538Z,101274.06
2018-01-26T20:06:05.788Z,101274.80
2018-01-26T20:08:39.814Z,101273.43
2018-01-26T20:11:07.402Z,101276.30
2018-01-26T20:13:34.995Z,101269.48
2018-01-26T20:16:02.795Z,101272.62
2018-01-26T20:18:30.456Z,101276.81
2018-01-26T20:20:58.039Z,101272.76
2018-01-26T20:23:25.675Z,101276.22
2018-01-26T20:25:53.235Z,101279.52
2018-01-26T20:28:20.812Z,101283.55
2018-01-26T20:30:48.431Z,101282.82
2018-01-26T20:33:15.992Z,101283.48
2018-01-26T20:35:43.611Z,101294.69
2018-01-26T20:38:11.215Z,101279.91
2018-01-26T20:40:38.996Z,101275.06
2018-01-26T20:43:06.594Z,101277.21
2018-01-26T20:45:34.197Z,101275.58
2018-01-26T20:48:01.784Z,101278.89
2018-01-26T20:50:29.454Z,101279.66
2018-01-26T20:52:57.140Z,101277.33
2018-01-26T20:55:24.704Z,101285.94
2018-01-26T20:57:52.278Z,101284.87
2018-01-26T21:00:19.878Z,101286.66
2018-01-26T21:02:47.539Z,101286.19
2018-01-26T21:05:15.112Z,101289.69
2018-01-26T21:07:42.702Z,101290.63
2018-01-26T21:10:13.415Z,101300.94
2018-01-26T21:12:41.086Z,101301.91
2018-01-26T21:15:08.691Z,101306.98
2018-01-26T21:17:36.384Z,101308.20
2018-01-26T21:20:03.939Z,101311.34
2018-01-26T21:22:31.539Z,101313.53
2018-01-26T21:24:59.730Z,101314.00
2018-01-26T21:27:27.295Z,101307.97
2018-01-26T21:29:54.905Z,101311.34
2018-01-26T21:32:22.452Z,101311.64
2018-01-26T21:34:50.225Z,101315.80
2018-01-26T21:37:17.921Z,101316.13
2018-01-26T21:39:46.406Z,101317.77
2018-01-26T21:42:13.968Z,101314.57
2018-01-26T21:44:41.602Z,101315.09
2018-01-26T21:47:09.177Z,101317.52
2018-01-26T21:49:36.865Z,101312.38
2018-01-26T21:52:04.475Z,101309.06
2018-01-26T21:54:32.060Z,101312.81
2018-01-26T21:56:59.634Z,101318.84
2018-01-26T21:59:27.246Z,101329.83
2018-01-26T22:01:54.915Z,101321.89
2018-01-26T22:04:22.527Z,101325.48
2018-01-26T22:06:55.605Z,101331.50
2018-01-26T22:09:23.262Z,101332.01
2018-01-26T22:11:50.882Z,101338.98
2018-01-26T22:14:18.480Z,101338.37
2018-01-26T22:16:46.057Z,101333.00
2018-01-26T22:19:13.614Z,101334.16
2018-01-26T22:21:41.208Z,101332.85
2018-01-26T22:24:08.778Z,101330.98
2018-01-26T22:26:36.345Z,101333.23
2018-01-26T22:29:03.965Z,101331.42
2018-01-26T22:31:31.544Z,101326.83
2018-01-26T22:33:59.349Z,101322.86
2018-01-26T22:36:26.952Z,101327.72
2018-01-26T22:38:54.531Z,101327.06
2018-01-26T22:41:22.106Z,101323.56
2018-01-26T22:43:49.904Z,101322.34
2018-01-26T22:46:17.483Z,101322.58
2018-01-26T22:48:45.040Z,101326.81
2018-01-26T22:51:12.649Z,101322.43
2018-01-26T22:53:40.209Z,101324.22
2018-01-26T22:56:07.784Z,101324.25
2018-01-26T22:58:35.391Z,101325.67
2018-01-26T23:01:02.958Z,101329.89
2018-01-26T23:03:30.539Z,101332.92
2018-01-26T23:05:58.150Z,101329.84
2018-01-26T23:08:25.903Z,101331.80
2018-01-26T23:10:53.472Z,101321.02
2018-01-26T23:13:21.062Z,101328.19
2018-01-26T23:15:48.655Z,101328.66
2018-01-26T23:18:16.218Z,101336.39
2018-01-26T23:20:44.019Z,101332.27
2018-01-26T23:23:11.571Z,101335.91
2018-01-26T23:25:39.135Z,101339.97
2018-01-26T23:28:06.743Z,101330.20
2018-01-26T23:30:34.295Z,101336.75
2018-01-26T23:33:01.857Z,101339.00
2018-01-26T23:35:29.481Z,101341.52
2018-01-26T23:37:57.098Z,101344.17
2018-01-26T23:40:25.582Z,101347.89
2018-01-26T23:42:53.182Z,101356.42
2018-01-26T23:45:20.874Z,101356.09
2018-01-26T23:47:48.481Z,101357.95
2018-01-26T23:50:16.085Z,101367.11
2018-01-26T23:52:43.697Z,101359.86
2018-01-26T23:55:11.492Z,101365.18
2018-01-26T23:57:39.098Z,101366.66
